Latest Coastal Weather Observations for Cape Bruny AWS

IDT60701

Issued at 7:32 pm EST Wednesday 6 May 2026 (issued every 10 minutes, with the page automatically refreshed every 10 minutes)

About coastal observations | Map of coastal stations | Coastal observations for TAS | Marine services | Other Formats
Station Details ID: 094198 Name: CAPE BRUNY (CAPE BRUNY) Lat: -43.49 Lon: 147.14 Height: 59.7 m
Data from the previous 72 hours. | See also: Recent months at Cape Bruny AWS
Date/Time
EST
Wind Sea
Height
m
Swell Vis
km
Cloud Weather Temp
°C
Press
MSL
hPa
Rain since
9am
mm
Dir  Spd
kts
Gust
kts
Height
m
Period
s
Dir
06/07:30pm WSW 19 23 - - - - - - - 8.4 1007.3 4.8
06/07:08pm WSW 16 26 - - - - - - - 8.8 1006.9 4.8
06/07:00pm WSW 14 22 - - - - - - - 8.5 1006.8 4.8
06/06:30pm W 14 18 - - - - - - - 8.3 1006.9 4.6
06/06:00pm WSW 15 19 - - - - - - Recent precip. 8.1 1006.9 4.6
06/05:30pm W 20 27 - - - - - - - 8.9 1006.7 4.6
06/05:05pm W 20 30 - - - - - - - 8.6 1006.6 4.4
06/05:00pm WSW 22 30 - - - - - - - 8.8 1006.5 4.4
06/04:30pm WSW 19 25 - - - - - - - 8.6 1006.5 4.4
06/04:00pm WSW 22 27 - - - - - - - 9.3 1007.0 4.0
06/03:30pm WSW 18 23 - - - - - - - 9.2 1006.8 4.0
06/03:00pm WSW 20 27 - - - - - - - 9.7 1007.1 4.0
06/02:30pm WSW 23 29 - - - - - - - 10.5 1006.7 4.0
06/02:00pm WSW 25 33 - - - - - - - 10.4 1006.7 4.0
06/01:46pm WSW 27 37 - - - - - - - 10.2 1006.8 4.0
06/01:30pm WSW 30 37 - - - - - - - 10.0 1006.8 4.0
06/01:00pm WSW 25 37 - - - - - - - 10.3 1006.9 4.0
06/12:59pm WSW 25 37 - - - - - - - 10.3 1006.9 4.0
06/12:30pm WSW 19 27 - - - - - - - 10.9 1007.5 4.0
06/12:00pm WSW 17 23 - - - - - - Rain 11.9 1007.7 1.8
06/11:30am N 11 16 - - - - - - - 13.9 1007.7 0.0
06/11:00am N 13 21 - - - - - - - 15.8 1007.8 0.0
06/10:30am NNW 9 14 - - - - - - - 16.9 1007.9 0.0
06/10:00am N 8 11 - - - - - - - 16.0 1008.3 0.0
06/09:30am N 11 16 - - - - - - - 14.8 1008.9 0.0
06/09:00am NNE 9 11 - - - - - - - 13.9 1009.3 0.0
06/08:30am N 7 13 - - - - - - - 13.7 1009.5 0.0
06/08:00am N 11 16 - - - - - - - 13.2 1009.6 0.0
06/07:30am N 7 11 - - - - - - - 13.0 1009.3 0.0
06/07:00am N 9 12 - - - - - - - 13.1 1009.3 0.0
06/06:30am N 9 13 - - - - - - - 13.1 1009.5 0.0
06/06:00am N 11 23 - - - - - - - 13.1 1009.5 0.0
06/05:30am NNW 10 17 - - - - - - - 12.5 1010.1 0.0
06/05:00am NW 11 17 - - - - - - - 13.3 1009.9 0.0
06/04:30am NNW 8 12 - - - - - - - 13.4 1010.0 0.0
06/04:00am NNW 8 13 - - - - - - - 13.7 1010.3 0.0
06/03:30am NNW 10 16 - - - - - - - 13.9 1010.3 0.0
06/03:00am NW 11 17 - - - - - - - 13.7 1011.0 0.0
06/02:30am NNW 11 17 - - - - - - - 13.7 1011.4 0.0
06/02:00am NNW 11 16 - - - - - - - 13.5 1011.9 0.0
06/01:30am NW 12 16 - - - - - - - 13.5 1011.7 0.0
06/01:00am NW 17 23 - - - - - - - 13.9 1011.7 0.0
06/12:30am WNW 18 24 - - - - - - - 14.2 1011.5 0.0
06/12:06am WNW 17 27 - - - - - - - 14.0 1011.8 0.0
06/12:00am NW 19 27 - - - - - - - 14.1 1011.8 0.0
 
Date/Time
EST
Wind Sea
Height
m
Swell Vis
km
Cloud Weather Temp
°C
Press
MSL
hPa
Rain since
9am
mm
Dir  Spd
kts
Gust
kts
Height
m
Period
s
Dir
05/11:30pm NW 13 19 - - - - - - - 13.8 1012.1 0.0
05/11:00pm N 9 13 - - - - - - - 12.3 1012.7 0.0
05/10:30pm N 10 15 - - - - - - - 12.5 1013.1 0.0
05/10:00pm N 13 18 - - - - - - - 12.6 1013.3 0.0
05/09:30pm N 10 15 - - - - - - - 12.7 1013.3 0.0
05/09:00pm N 8 13 - - - - - - - 12.5 1013.5 0.0
05/08:30pm NNW 9 13 - - - - - - - 12.8 1013.8 0.0
05/08:00pm N 7 11 - - - - - - - 12.5 1013.8 0.0
05/07:30pm N 5 7 - - - - - - - 12.3 1014.1 0.0
05/07:00pm N 7 11 - - - - - - - 12.1 1014.0 0.0
05/06:30pm NNW 8 11 - - - - - - - 12.7 1013.9 0.0
05/06:00pm NW 5 7 - - - - - - - 12.8 1013.6 0.0
05/05:30pm WNW 10 17 - - - - - - - 12.9 1013.4 0.0
05/05:00pm WNW 14 17 - - - - - - - 12.9 1013.2 0.0
05/04:30pm WNW 20 25 - - - - - - - 13.1 1012.9 0.0
05/04:00pm WNW 21 25 - - - - - - - 14.2 1012.8 0.0
05/03:30pm WNW 20 25 - - - - - - - 13.6 1012.7 0.0
05/03:00pm W 18 22 - - - - - - - 14.6 1012.1 0.0
05/02:30pm WNW 19 24 - - - - - - - 15.9 1011.9 0.0
05/02:00pm W 16 21 - - - - - - - 15.3 1011.6 0.0
05/01:30pm W 14 19 - - - - - - - 14.7 1011.6 0.0
05/01:00pm WSW 20 26 - - - - - - - 14.3 1011.3 0.0
05/12:30pm WSW 20 26 - - - - - - - 13.8 1011.5 0.0
05/12:00pm WSW 16 23 - - - - - - - 12.6 1011.5 0.0
05/11:30am SW 12 18 - - - - - - - 13.4 1011.6 0.0
05/11:00am WSW 11 18 - - - - - - - 14.6 1011.2 0.0
05/10:30am WSW 11 14 - - - - - - - 13.9 1011.0 0.0
05/10:00am WSW 11 15 - - - - - - - 13.9 1010.6 0.0
05/09:30am W 11 15 - - - - - - - 13.7 1010.4 0.0
05/09:00am WSW 15 18 - - - - - - - 12.8 1010.5 0.0
05/08:30am WSW 17 22 - - - - - - - 11.9 1010.0 0.0
05/08:20am W 14 19 - - - - - - - 12.2 1010.0 0.0
05/08:00am SW 5 7 - - - - - - - 12.4 1009.8 0.0
05/07:30am CALM 0 0 - - - - - - - 11.6 1009.1 0.0
05/07:00am W 3 3 - - - - - - - 11.3 1008.8 0.0
05/06:30am WNW 3 4 - - - - - - - 11.6 1008.3 0.0
05/06:00am CALM 0 3 - - - - - - - 11.2 1008.0 0.0
05/05:30am N 7 8 - - - - - - - 11.4 1007.6 0.0
05/05:00am WNW 1 3 - - - - - - - 11.7 1007.4 0.0
05/04:30am WNW 4 5 - - - - - - - 11.3 1007.1 0.0
05/04:00am CALM 0 0 - - - - - - - 12.4 1006.9 0.0
05/03:30am CALM 0 0 - - - - - - - 12.5 1006.9 0.0
05/03:00am SE 1 4 - - - - - - - 12.6 1006.8 0.0
05/02:30am SE 3 5 - - - - - - - 12.7 1006.8 0.0
05/02:00am SSE 3 5 - - - - - - - 12.5 1007.0 0.0
05/01:30am SSE 3 4 - - - - - - - 12.3 1007.2 0.0
05/01:00am SSE 4 5 - - - - - - - 12.2 1007.3 0.0
05/12:30am SSW 4 6 - - - - - - - 12.4 1007.0 0.0
05/12:00am SW 3 4 - - - - - - - 12.4 1007.1 0.0
 
Date/Time
EST
Wind Sea
Height
m
Swell Vis
km
Cloud Weather Temp
°C
Press
MSL
hPa
Rain since
9am
mm
Dir  Spd
kts
Gust
kts
Height
m
Period
s
Dir
04/11:30pm WSW 3 5 - - - - - - - 12.6 1007.3 0.0
04/11:00pm W 5 6 - - - - - - - 12.9 1007.6 0.0
04/10:30pm WSW 4 6 - - - - - - - 12.7 1007.5 0.0
04/10:00pm SW 4 5 - - - - - - - 12.8 1007.5 0.0
04/09:30pm SW 4 5 - - - - - - - 14.0 1007.4 0.0
04/09:00pm NW 7 9 - - - - - - - 14.2 1007.1 0.0
04/08:30pm NNW 6 8 - - - - - - - 14.5 1006.9 0.0
04/08:00pm NNE 6 8 - - - - - - - 14.5 1006.8 0.0
04/07:30pm NNW 5 8 - - - - - - - 14.4 1006.9 0.0
04/07:00pm NNE 3 5 - - - - - - - 14.2 1006.9 0.0
04/06:30pm N 6 8 - - - - - - - 14.4 1006.7 0.0
04/06:00pm NNE 6 9 - - - - - - - 14.9 1006.4 0.0
04/05:30pm N 7 9 - - - - - - - 14.7 1006.2 0.0
04/05:00pm N 6 7 - - - - - - - 15.3 1006.0 0.0
04/04:30pm N 7 8 - - - - - - - 16.6 1006.0 0.0
04/04:00pm N 5 7 - - - - - - - 17.5 1005.9 0.0
04/03:30pm NNE 7 9 - - - - - - - 18.8 1006.0 0.0
04/03:00pm NNE 6 9 - - - - - - - 19.5 1006.1 0.0
04/02:30pm NNE 7 11 - - - - - - - 19.4 1006.3 0.0
04/02:00pm NNE 8 11 - - - - - - - 19.4 1006.4 0.0
04/01:30pm NNE 7 11 - - - - - - - 19.5 1006.8 0.0
04/01:00pm NNE 8 13 - - - - - - - 19.4 1007.4 0.0
04/12:30pm N 8 13 - - - - - - - 19.1 1007.8 0.0
04/12:00pm NNE 7 11 - - - - - - - 18.9 1008.2 0.0
04/11:30am NNE 7 10 - - - - - - - 18.3 1008.5 0.0
04/11:00am NNE 8 11 - - - - - - - 17.6 1008.7 0.0
04/10:30am NNE 8 11 - - - - - - - 16.7 1008.8 0.0
04/10:00am NE 10 13 - - - - - - - 15.7 1009.0 0.0
04/09:30am ENE 5 7 - - - - - - - 15.8 1009.0 0.0
04/09:00am NE 7 9 - - - - - - - 14.9 1009.3 2.0
04/08:30am N 9 11 - - - - - - - 13.8 1009.1 2.0
04/08:00am N 10 11 - - - - - - - 12.9 1009.1 2.0
04/07:30am N 9 11 - - - - - - - 12.5 1008.7 2.0
04/07:00am N 9 11 - - - - - - - 12.3 1008.3 2.0
04/06:30am N 9 11 - - - - - - - 12.7 1008.1 2.0
04/06:00am N 9 11 - - - - - - - 12.8 1008.3 2.0
04/05:30am N 8 9 - - - - - - - 13.1 1008.3 2.0
04/05:00am WNW 5 8 - - - - - - - 13.8 1008.1 2.0
04/04:30am NNW 9 11 - - - - - - - 13.6 1008.0 2.0
04/04:00am N 10 11 - - - - - - - 13.9 1007.9 2.0
04/03:30am NNW 9 10 - - - - - - - 14.3 1007.9 2.0
04/03:00am N 7 9 - - - - - - - 13.8 1008.0 2.0
04/02:30am WNW 8 9 - - - - - - - 13.9 1008.2 2.0
04/02:00am WNW 6 8 - - - - - - - 13.6 1008.5 2.0
04/01:30am CALM 0 0 - - - - - - - 13.9 1008.2 2.0
04/01:00am ENE 3 4 - - - - - - - 13.8 1009.0 2.0
04/12:30am E 3 5 - - - - - - - 13.9 1008.8 2.0
04/12:00am ENE 5 8 - - - - - - - 14.0 1009.4 2.0
 
Date/Time
EST
Wind Sea
Height
m
Swell Vis
km
Cloud Weather Temp
°C
Press
MSL
hPa
Rain since
9am
mm
Dir  Spd
kts
Gust
kts
Height
m
Period
s
Dir
03/11:30pm SE 5 8 - - - - - - - 14.4 1009.4 2.0
03/11:00pm SW 6 9 - - - - - - - 14.8 1009.0 2.0
03/10:30pm WNW 9 12 - - - - - - - 14.9 1009.5 2.0
03/10:00pm N 9 13 - - - - - - - 15.5 1008.8 2.0
03/09:30pm N 7 10 - - - - - - - 15.7 1008.4 2.0
03/09:00pm N 10 15 - - - - - - - 15.9 1008.3 2.0
03/08:30pm NNE 9 14 - - - - - - - 15.8 1008.2 2.0
03/08:00pm NNE 9 15 - - - - - - - 16.0 1008.2 2.0

Other formats

Comma delimited format used in spreadsheet applications
http://www.bom.gov.au/fwo/IDT60701/IDT60701.95967.axf

JavaScript Object Notation format (JSON) in row-major order
http://www.bom.gov.au/fwo/IDT60701/IDT60701.95967.json

Data quality

Most of these data are generated automatically and are frequently updated. Quality checks on data are not normally performed. It is possible for incorrect values to appear. Refer to information at About Latest Weather Observations and please check the disclaimer before using these data.